Overview Statistics Trail Chart Weather Telemetry Raw packets
 

This is the latest recevied weather packets stored in our database for station/object KJ6HT. If no packets are shown the sender has not sent any weather packets the latest 10 day(s).

<< 16 17 18 19 20 21 22 >>
Time Temp. Humidity Pressure Rain* Wind** Luminosity Snow
1788248774 21.67° C 70% 1012.6 hPa 0 mm - - -
1788247870 21.11° C 73% 1012.6 hPa 0 mm - - -
1788246962 21.67° C 71% 1012.5 hPa 0 mm - - -
1788246050 21.67° C 69% 1012.5 hPa 0 mm - - -
1788245114 22.22° C 68% 1012.4 hPa 0 mm - - -
1788244224 21.67° C 70% 1012.4 hPa 0 mm - - -
1788243377 21.67° C 71% 1012.4 hPa 0 mm - - -
1788242419 21.67° C 71% 1012.4 hPa 0 mm - - -
1788241572 21.67° C 72% 1012.5 hPa 0 mm - - -
1788240616 21.67° C 70% 1012.4 hPa 0 mm - - -
1788239779 22.22° C 70% 1012.1 hPa 0 mm - - -
1788238816 22.22° C 68% 1012.1 hPa 0 mm - - -
1788237973 22.78° C 66% 1012.1 hPa 0 mm - - -
1788237022 22.78° C 64% 1012 hPa 0 mm - - -
1788236172 23.33° C 62% 1011.8 hPa 0 mm - - -
1788235222 23.33° C 63% 1011.3 hPa 0 mm - - -
1788234371 23.33° C 63% 1011.2 hPa 0 mm - - -
1788233433 23.33° C 62% 1010.9 hPa 0 mm - - -
1788232535 24.44° C 60% 1010.7 hPa 0 mm - - -
1788231668 23.89° C 61% 1010.5 hPa 0 mm - - -
1788230718 24.44° C 58% 1010.3 hPa 0 mm - - -
1788229875 25.56° C 53% 1010.1 hPa 0 mm - - -
1788228970 26.11° C 46% 1010 hPa 0 mm - - -
1788228023 26.67° C 38% 1009.8 hPa 0 mm - - -
1788227177 27.22° C 41% 1009.7 hPa 0 mm - - -

* Rain latest hour (hover to see other rain measurements)
** Current wind speed in m/s (hover to see current wind gust speed)